createdAt,value
2022-08-25T00:01:27.545Z,24.21
2022-08-25T00:03:59.030Z,24.22
2022-08-25T00:06:26.220Z,24.22
2022-08-25T00:08:52.721Z,24.20
2022-08-25T00:11:23.052Z,24.21
2022-08-25T00:13:54.030Z,24.21
2022-08-25T00:16:22.154Z,24.21
2022-08-25T00:18:52.373Z,24.16
2022-08-25T00:21:21.331Z,24.15
2022-08-25T00:23:48.084Z,24.12
2022-08-25T00:26:15.622Z,24.12
2022-08-25T00:28:43.113Z,24.11
2022-08-25T00:31:15.005Z,24.13
2022-08-25T00:33:43.100Z,24.14
2022-08-25T00:36:12.132Z,24.12
2022-08-25T00:38:44.011Z,24.15
2022-08-25T00:41:12.948Z,24.12
2022-08-25T00:43:42.360Z,24.08
2022-08-25T00:46:10.144Z,24.05
2022-08-25T00:48:40.304Z,24.03
2022-08-25T00:51:09.805Z,24.02
2022-08-25T00:53:36.562Z,24.01
2022-08-25T00:56:03.622Z,23.96
2022-08-25T00:58:32.310Z,23.92
2022-08-25T01:00:58.760Z,23.84
2022-08-25T01:03:33.141Z,23.80
2022-08-25T01:06:03.882Z,23.81
2022-08-25T01:08:32.466Z,23.83
2022-08-25T01:11:02.528Z,23.84
2022-08-25T01:13:34.204Z,23.79
2022-08-25T01:16:03.957Z,23.77
2022-08-25T01:18:43.167Z,23.76
2022-08-25T01:21:09.648Z,23.76
2022-08-25T01:23:36.172Z,23.74
2022-08-25T01:26:41.219Z,23.69
2022-08-25T01:29:21.134Z,23.67
2022-08-25T01:31:52.457Z,23.63
2022-08-25T01:34:19.841Z,23.63
2022-08-25T01:36:46.277Z,23.66
2022-08-25T01:39:14.426Z,23.72
2022-08-25T01:41:48.662Z,23.74
2022-08-25T01:44:18.499Z,23.75
2022-08-25T01:46:45.071Z,23.76
2022-08-25T01:49:11.556Z,23.75
2022-08-25T01:51:44.184Z,23.78
2022-08-25T01:54:10.701Z,23.78
2022-08-25T01:56:37.117Z,23.81
2022-08-25T01:59:03.545Z,23.81
2022-08-25T02:01:30.415Z,23.76
2022-08-25T02:03:57.526Z,23.75
2022-08-25T02:06:29.821Z,23.73
2022-08-25T02:09:00.970Z,23.62
2022-08-25T02:11:30.446Z,23.63
2022-08-25T02:13:56.900Z,23.66
2022-08-25T02:16:28.322Z,23.70
2022-08-25T02:18:56.370Z,23.71
2022-08-25T02:21:23.225Z,23.74
2022-08-25T02:23:49.728Z,23.72
2022-08-25T02:26:19.081Z,23.71
2022-08-25T02:28:47.418Z,23.71
2022-08-25T02:31:14.557Z,23.64
2022-08-25T02:33:41.426Z,23.61
2022-08-25T02:36:08.530Z,23.63
2022-08-25T02:38:36.708Z,23.61
2022-08-25T02:41:12.542Z,23.58
2022-08-25T02:43:41.403Z,23.56
2022-08-25T02:46:09.155Z,23.54
2022-08-25T02:48:36.652Z,23.53
2022-08-25T02:51:04.000Z,23.55
2022-08-25T02:53:30.509Z,23.53
2022-08-25T02:55:56.921Z,23.50
2022-08-25T02:58:23.866Z,23.46
2022-08-25T03:00:50.421Z,23.44
2022-08-25T03:03:18.809Z,23.39
2022-08-25T03:05:45.726Z,23.36
2022-08-25T03:08:12.429Z,23.33
2022-08-25T03:10:39.223Z,23.31
2022-08-25T03:13:05.979Z,23.26
2022-08-25T03:15:32.969Z,23.22
2022-08-25T03:18:03.299Z,23.23
2022-08-25T03:20:30.176Z,23.21
2022-08-25T03:22:57.020Z,23.23
2022-08-25T03:25:42.016Z,23.20
2022-08-25T03:28:08.783Z,23.18
2022-08-25T03:30:35.260Z,23.18
2022-08-25T03:33:01.902Z,23.17
2022-08-25T03:35:28.350Z,23.14
2022-08-25T03:37:58.979Z,23.14
2022-08-25T03:40:26.250Z,23.15
2022-08-25T03:42:54.083Z,23.18
2022-08-25T03:45:20.823Z,23.16
2022-08-25T03:47:49.449Z,23.15
2022-08-25T03:50:17.489Z,23.14
2022-08-25T03:52:43.982Z,23.14
2022-08-25T03:55:12.629Z,23.13
2022-08-25T03:57:39.348Z,23.11
2022-08-25T04:00:08.385Z,23.11
2022-08-25T04:02:39.300Z,23.07
2022-08-25T04:05:06.277Z,23.08
2022-08-25T04:07:32.709Z,23.07
2022-08-25T04:09:59.131Z,23.06
2022-08-25T04:12:25.577Z,23.06
2022-08-25T04:14:52.021Z,23.02
2022-08-25T04:17:18.933Z,22.99
2022-08-25T04:19:45.468Z,22.98
2022-08-25T04:22:12.023Z,22.96
2022-08-25T04:24:40.303Z,22.95
2022-08-25T04:27:06.825Z,22.95
2022-08-25T04:29:33.680Z,22.91
2022-08-25T04:32:00.331Z,22.89
2022-08-25T04:34:30.742Z,22.90
2022-08-25T04:37:03.321Z,22.88
2022-08-25T04:39:30.265Z,22.86
2022-08-25T04:41:57.386Z,22.85
2022-08-25T04:44:23.794Z,22.84
2022-08-25T04:46:50.411Z,22.86
2022-08-25T04:49:16.824Z,22.88
2022-08-25T04:51:43.292Z,22.88
2022-08-25T04:54:13.169Z,22.88
2022-08-25T04:56:41.075Z,22.89
2022-08-25T04:59:13.591Z,22.90
2022-08-25T05:01:42.253Z,22.91
2022-08-25T05:04:14.653Z,22.90
2022-08-25T05:06:54.847Z,22.88
2022-08-25T05:09:21.855Z,22.87
2022-08-25T05:11:48.624Z,22.85
2022-08-25T05:14:18.109Z,22.85
2022-08-25T05:16:45.166Z,22.85
2022-08-25T05:19:11.709Z,22.83
2022-08-25T05:21:38.271Z,22.83
2022-08-25T05:24:04.821Z,22.78
2022-08-25T05:26:32.949Z,22.74
2022-08-25T05:29:01.987Z,22.77
2022-08-25T05:31:28.776Z,22.80
2022-08-25T05:33:56.449Z,22.80
2022-08-25T05:36:24.359Z,22.81
2022-08-25T05:38:50.910Z,22.82
2022-08-25T05:41:20.398Z,22.81
2022-08-25T05:43:48.840Z,22.79
2022-08-25T05:46:18.128Z,22.78
2022-08-25T05:48:44.850Z,22.75
2022-08-25T05:51:13.222Z,22.74
2022-08-25T05:53:42.182Z,22.74
2022-08-25T05:56:09.840Z,22.71
2022-08-25T05:58:36.569Z,22.73
2022-08-25T06:01:22.495Z,22.74
2022-08-25T06:03:49.894Z,22.76
2022-08-25T06:06:16.478Z,22.73
2022-08-25T06:08:44.673Z,22.74
2022-08-25T06:11:12.559Z,22.74
2022-08-25T06:13:39.482Z,22.77
2022-08-25T06:16:06.540Z,22.79
2022-08-25T06:18:33.057Z,22.81
2022-08-25T06:20:59.476Z,22.81
2022-08-25T06:23:25.891Z,22.86
2022-08-25T06:25:53.934Z,22.86
2022-08-25T06:28:21.009Z,22.86
2022-08-25T06:30:47.704Z,22.86
2022-08-25T06:33:14.640Z,22.87
2022-08-25T06:35:43.486Z,22.90
2022-08-25T06:38:10.398Z,22.89
2022-08-25T06:40:37.834Z,22.83
2022-08-25T06:43:08.686Z,22.84
2022-08-25T06:45:35.576Z,22.85
2022-08-25T06:48:02.100Z,22.88
2022-08-25T06:50:28.618Z,22.88
2022-08-25T06:52:55.098Z,22.92
2022-08-25T06:55:21.612Z,22.96
2022-08-25T06:57:48.119Z,23.01
2022-08-25T07:00:14.829Z,23.04
2022-08-25T07:02:42.207Z,23.06
2022-08-25T07:05:13.252Z,23.09
2022-08-25T07:07:43.686Z,23.12
2022-08-25T07:10:10.868Z,23.17
2022-08-25T07:12:37.317Z,23.20
2022-08-25T07:15:19.487Z,23.20
2022-08-25T07:17:47.036Z,23.25
2022-08-25T07:20:14.063Z,23.31
2022-08-25T07:22:41.322Z,23.39
2022-08-25T07:25:09.131Z,23.45
2022-08-25T07:27:35.595Z,23.48
2022-08-25T07:30:04.275Z,23.53
2022-08-25T07:32:30.831Z,23.56
2022-08-25T07:35:15.343Z,23.64
2022-08-25T07:37:49.454Z,23.69
2022-08-25T07:40:23.313Z,23.76
2022-08-25T07:42:52.649Z,23.79
2022-08-25T07:45:21.101Z,23.84
2022-08-25T07:47:48.032Z,23.89
2022-08-25T07:50:18.235Z,23.97
2022-08-25T07:52:44.661Z,24.02
2022-08-25T07:55:20.141Z,24.08
2022-08-25T07:57:48.945Z,24.13
2022-08-25T08:00:20.398Z,24.23
2022-08-25T08:02:46.956Z,24.33
2022-08-25T08:05:14.428Z,24.39
2022-08-25T08:07:43.042Z,24.40
2022-08-25T08:10:42.173Z,24.47
2022-08-25T08:12:59.779Z,24.50
2022-08-25T08:15:29.710Z,24.56
2022-08-25T08:17:58.002Z,24.64
2022-08-25T08:20:25.046Z,24.73
2022-08-25T08:22:51.967Z,24.83
2022-08-25T08:25:18.730Z,24.88
2022-08-25T08:27:48.734Z,24.96
2022-08-25T08:30:15.249Z,25.00
2022-08-25T08:33:08.576Z,25.04
2022-08-25T08:35:28.503Z,25.05
2022-08-25T08:37:54.930Z,25.13
2022-08-25T08:40:21.977Z,25.20
2022-08-25T08:43:06.390Z,25.26
2022-08-25T08:45:43.899Z,25.34
2022-08-25T08:48:38.232Z,25.45
2022-08-25T08:51:24.490Z,25.49
2022-08-25T08:54:15.532Z,25.52
2022-08-25T08:56:48.189Z,25.59
2022-08-25T08:59:22.171Z,25.69
2022-08-25T09:02:00.545Z,25.77
2022-08-25T09:04:37.366Z,25.87
2022-08-25T09:07:10.879Z,25.93
2022-08-25T09:09:41.841Z,25.97
2022-08-25T09:12:41.223Z,26.06
2022-08-25T09:15:57.534Z,26.17
2022-08-25T09:18:51.237Z,26.21
2022-08-25T09:21:58.130Z,26.28
2022-08-25T09:24:46.924Z,26.40
2022-08-25T09:27:28.834Z,26.43
2022-08-25T09:30:12.484Z,26.52
2022-08-25T09:32:48.672Z,26.59
2022-08-25T09:35:23.759Z,26.61
2022-08-25T09:37:56.789Z,26.63
2022-08-25T09:40:25.720Z,26.63
2022-08-25T09:42:57.973Z,26.72
2022-08-25T09:45:42.373Z,26.88
2022-08-25T09:48:22.798Z,26.98
2022-08-25T09:50:51.659Z,27.08
2022-08-25T09:53:21.760Z,27.18
2022-08-25T09:56:05.828Z,27.17
2022-08-25T09:58:32.781Z,27.15
2022-08-25T10:01:18.319Z,27.15
2022-08-25T10:03:57.088Z,27.26
2022-08-25T10:06:25.219Z,27.35
2022-08-25T10:08:57.469Z,27.45
2022-08-25T10:11:41.585Z,27.56
2022-08-25T10:14:32.650Z,27.62
2022-08-25T10:17:33.639Z,27.68
2022-08-25T10:20:20.974Z,27.73
2022-08-25T10:22:50.601Z,27.77
2022-08-25T10:25:26.800Z,27.82
2022-08-25T10:28:05.777Z,27.90
2022-08-25T10:30:51.303Z,27.88
2022-08-25T10:33:36.188Z,27.94
2022-08-25T10:36:21.586Z,27.99
2022-08-25T10:38:58.020Z,28.10
2022-08-25T10:42:00.606Z,28.15
2022-08-25T10:45:00.732Z,28.14
2022-08-25T10:47:52.168Z,28.12
2022-08-25T10:50:24.744Z,28.20
2022-08-25T10:53:39.734Z,28.30
2022-08-25T10:56:22.406Z,28.50
2022-08-25T10:59:01.613Z,28.52
2022-08-25T11:01:43.722Z,28.55
2022-08-25T11:04:28.443Z,28.55
2022-08-25T11:07:39.579Z,28.58
2022-08-25T11:10:37.666Z,28.54
2022-08-25T11:13:11.248Z,28.49
2022-08-25T11:16:15.977Z,28.41
2022-08-25T11:19:05.544Z,28.37
2022-08-25T11:21:51.190Z,28.33
2022-08-25T11:24:36.456Z,28.35
2022-08-25T11:27:06.448Z,28.40
2022-08-25T11:29:37.961Z,28.51
2022-08-25T11:32:06.425Z,28.66
2022-08-25T11:34:36.346Z,28.75
2022-08-25T11:37:28.726Z,28.74
2022-08-25T11:40:36.909Z,28.70
2022-08-25T11:43:12.224Z,28.72
2022-08-25T11:46:03.842Z,28.72
2022-08-25T11:48:59.134Z,28.77
2022-08-25T11:51:47.459Z,28.89
2022-08-25T11:54:19.697Z,29.00
2022-08-25T11:57:00.621Z,29.21
2022-08-25T11:59:50.216Z,29.27
2022-08-25T12:02:42.793Z,29.28
2022-08-25T12:05:41.197Z,29.26
2022-08-25T12:08:25.985Z,29.19
2022-08-25T12:10:54.118Z,29.16
2022-08-25T12:13:41.161Z,29.19
2022-08-25T12:16:36.693Z,29.22
2022-08-25T12:19:38.132Z,29.29
2022-08-25T12:22:04.515Z,29.34
2022-08-25T12:24:47.546Z,29.41
2022-08-25T12:27:29.001Z,29.43
2022-08-25T12:30:31.071Z,29.47
2022-08-25T12:33:07.490Z,29.58
2022-08-25T12:35:51.458Z,29.63
2022-08-25T12:38:30.348Z,29.66
2022-08-25T12:41:08.689Z,29.72
2022-08-25T12:43:42.419Z,29.75
2022-08-25T12:46:21.064Z,29.79
2022-08-25T12:49:25.974Z,29.80
2022-08-25T12:52:00.374Z,29.85
2022-08-25T12:54:47.578Z,29.89
2022-08-25T12:57:29.936Z,29.91
2022-08-25T12:59:59.489Z,30.02
2022-08-25T13:02:53.291Z,30.03
2022-08-25T13:05:57.465Z,30.12
2022-08-25T13:08:47.039Z,30.15
2022-08-25T13:11:22.303Z,30.13
2022-08-25T13:14:00.629Z,30.08
2022-08-25T13:16:29.994Z,30.13
2022-08-25T13:18:59.239Z,30.27
2022-08-25T13:21:41.732Z,30.31
2022-08-25T13:24:31.795Z,30.31
2022-08-25T13:27:18.269Z,30.33
2022-08-25T13:29:55.846Z,30.37
2022-08-25T13:32:35.660Z,30.41
2022-08-25T13:35:28.913Z,30.43
2022-08-25T13:38:19.447Z,30.45
2022-08-25T13:40:46.021Z,30.50
2022-08-25T13:43:15.067Z,30.54
2022-08-25T13:45:48.043Z,30.59
2022-08-25T13:48:33.485Z,30.58
2022-08-25T13:51:31.351Z,30.53
2022-08-25T13:54:08.295Z,30.54
2022-08-25T13:56:40.913Z,30.47
2022-08-25T13:59:25.612Z,30.45
2022-08-25T14:01:54.222Z,30.44
2022-08-25T14:04:51.093Z,30.49
2022-08-25T14:07:21.050Z,30.52
2022-08-25T14:10:03.758Z,30.51
2022-08-25T14:12:46.803Z,30.47
2022-08-25T14:15:16.260Z,30.47
2022-08-25T14:18:04.866Z,30.49
2022-08-25T14:20:33.289Z,30.51
2022-08-25T14:23:09.787Z,30.52
2022-08-25T14:25:36.853Z,30.51
2022-08-25T14:28:14.700Z,30.54
2022-08-25T14:30:46.598Z,30.54
2022-08-25T14:33:15.021Z,30.55
2022-08-25T14:35:45.223Z,30.61
2022-08-25T14:38:13.755Z,30.60
2022-08-25T14:40:40.443Z,30.58
2022-08-25T14:43:10.461Z,30.62
2022-08-25T14:45:41.505Z,30.62
2022-08-25T14:48:12.930Z,30.65
2022-08-25T14:50:41.894Z,30.60
2022-08-25T14:53:11.002Z,30.56
2022-08-25T14:55:38.708Z,30.58
2022-08-25T14:58:06.810Z,30.60
2022-08-25T15:00:37.236Z,30.57
2022-08-25T15:03:03.908Z,30.54
2022-08-25T15:05:31.758Z,30.50
2022-08-25T15:08:16.748Z,30.50
2022-08-25T15:10:43.419Z,30.36
2022-08-25T15:13:10.764Z,30.38
2022-08-25T15:15:40.175Z,30.39
2022-08-25T15:18:20.431Z,30.38
2022-08-25T15:20:47.002Z,30.41
2022-08-25T15:23:18.370Z,30.41
2022-08-25T15:25:47.551Z,30.38
2022-08-25T15:28:17.093Z,30.37
2022-08-25T15:30:45.928Z,30.29
2022-08-25T15:33:13.394Z,30.28
2022-08-25T15:35:40.224Z,30.22
2022-08-25T15:38:08.024Z,30.26
2022-08-25T15:40:37.347Z,30.26
2022-08-25T15:43:03.968Z,30.23
2022-08-25T15:45:31.387Z,30.20
2022-08-25T15:47:57.956Z,30.18
2022-08-25T15:50:26.192Z,30.16
2022-08-25T15:52:53.126Z,30.11
2022-08-25T15:55:19.979Z,30.10
2022-08-25T15:57:47.780Z,30.08
2022-08-25T16:00:17.975Z,30.05
2022-08-25T16:02:45.534Z,29.98
2022-08-25T16:05:13.613Z,29.92
2022-08-25T16:07:40.928Z,29.80
2022-08-25T16:10:07.746Z,29.77
2022-08-25T16:12:34.411Z,29.73
2022-08-25T16:15:01.625Z,29.66
2022-08-25T16:17:28.119Z,29.59
2022-08-25T16:19:54.542Z,29.54
2022-08-25T16:22:20.982Z,29.47
2022-08-25T16:24:47.894Z,29.41
2022-08-25T16:27:15.021Z,29.31
2022-08-25T16:29:43.768Z,29.22
2022-08-25T16:32:13.354Z,29.07
2022-08-25T16:34:41.335Z,28.90
2022-08-25T16:37:08.542Z,28.82
2022-08-25T16:39:35.818Z,28.76
2022-08-25T16:42:02.262Z,28.68
2022-08-25T16:44:28.718Z,28.66
2022-08-25T16:46:55.388Z,28.59
2022-08-25T16:49:24.533Z,28.50
2022-08-25T16:51:57.048Z,28.45
2022-08-25T16:54:44.000Z,28.35
2022-08-25T16:57:10.719Z,28.30
2022-08-25T16:59:37.176Z,28.31
2022-08-25T17:02:03.936Z,28.28
2022-08-25T17:04:32.494Z,28.21
2022-08-25T17:06:59.606Z,28.20
2022-08-25T17:09:26.043Z,28.22
2022-08-25T17:11:56.500Z,28.19
2022-08-25T17:14:22.927Z,28.13
2022-08-25T17:16:51.106Z,27.99
2022-08-25T17:19:17.948Z,27.85
2022-08-25T17:21:50.000Z,27.74
2022-08-25T17:24:17.081Z,27.70
2022-08-25T17:26:46.260Z,27.69
2022-08-25T17:29:12.808Z,27.71
2022-08-25T17:31:40.016Z,27.69
2022-08-25T17:34:12.833Z,27.60
2022-08-25T17:36:43.530Z,27.50
2022-08-25T17:39:12.577Z,27.49
2022-08-25T17:41:39.589Z,27.49
2022-08-25T17:44:07.355Z,27.47
2022-08-25T17:46:33.936Z,27.43
2022-08-25T17:49:00.582Z,27.39
2022-08-25T17:51:29.764Z,27.36
2022-08-25T17:53:58.477Z,27.34
2022-08-25T17:56:27.340Z,27.21
2022-08-25T17:58:55.204Z,27.13
2022-08-25T18:01:25.832Z,27.08
2022-08-25T18:03:53.783Z,27.03
2022-08-25T18:06:21.125Z,26.92
2022-08-25T18:08:51.667Z,26.83
2022-08-25T18:11:20.814Z,26.77
2022-08-25T18:13:47.321Z,26.74
2022-08-25T18:16:16.882Z,26.69
2022-08-25T18:18:44.389Z,26.63
2022-08-25T18:21:16.614Z,26.61
2022-08-25T18:23:43.539Z,26.60
2022-08-25T18:26:13.110Z,26.59
2022-08-25T18:28:40.295Z,26.60
2022-08-25T18:31:11.983Z,26.55
2022-08-25T18:33:41.725Z,26.44
2022-08-25T18:36:09.111Z,26.35
2022-08-25T18:38:58.120Z,26.27
2022-08-25T18:41:26.308Z,26.13
2022-08-25T18:43:53.301Z,26.01
2022-08-25T18:46:22.523Z,25.99
2022-08-25T18:48:49.693Z,25.95
2022-08-25T18:51:19.508Z,25.81
2022-08-25T18:53:51.126Z,25.70
2022-08-25T18:56:22.344Z,25.65
2022-08-25T18:58:48.801Z,25.64
2022-08-25T19:01:16.828Z,25.55
2022-08-25T19:03:44.637Z,25.54
2022-08-25T19:06:11.133Z,25.48
2022-08-25T19:08:40.028Z,25.40
2022-08-25T19:11:09.640Z,25.39
2022-08-25T19:13:36.698Z,25.33
2022-08-25T19:16:17.700Z,25.34
2022-08-25T19:18:48.749Z,25.32
2022-08-25T19:21:15.555Z,25.29
2022-08-25T19:23:41.942Z,25.29
2022-08-25T19:26:17.133Z,25.25
2022-08-25T19:28:48.595Z,25.28
2022-08-25T19:31:15.299Z,25.25
2022-08-25T19:33:45.098Z,25.08
2022-08-25T19:36:11.921Z,25.01
2022-08-25T19:38:39.288Z,25.02
2022-08-25T19:41:10.524Z,25.05
2022-08-25T19:43:41.443Z,25.01
2022-08-25T19:46:23.276Z,24.99
2022-08-25T19:48:49.745Z,24.96
2022-08-25T19:51:17.036Z,24.89
2022-08-25T19:53:46.230Z,24.86
2022-08-25T19:56:20.074Z,24.83
2022-08-25T19:58:46.501Z,24.77
2022-08-25T20:01:14.005Z,24.80
2022-08-25T20:03:44.971Z,24.74
2022-08-25T20:06:12.004Z,24.66
2022-08-25T20:08:42.523Z,24.63
2022-08-25T20:11:08.929Z,24.55
2022-08-25T20:13:35.389Z,24.59
2022-08-25T20:16:02.410Z,24.54
2022-08-25T20:18:28.846Z,24.53
2022-08-25T20:20:55.976Z,24.51
2022-08-25T20:23:41.770Z,24.46
2022-08-25T20:26:08.965Z,24.37
2022-08-25T20:28:35.418Z,24.32
2022-08-25T20:31:02.180Z,24.31
2022-08-25T20:33:29.005Z,24.29
2022-08-25T20:35:55.497Z,24.26
2022-08-25T20:38:22.561Z,24.23
2022-08-25T20:40:49.349Z,24.16
2022-08-25T20:43:15.863Z,24.08
2022-08-25T20:45:42.342Z,24.02
2022-08-25T20:48:09.520Z,23.94
2022-08-25T20:50:38.702Z,23.85
2022-08-25T20:53:05.642Z,23.81
2022-08-25T20:55:42.535Z,23.74
2022-08-25T20:58:10.371Z,23.77
2022-08-25T21:00:36.839Z,23.75
2022-08-25T21:03:03.269Z,23.71
2022-08-25T21:05:29.689Z,23.74
2022-08-25T21:07:56.111Z,23.71
2022-08-25T21:10:23.378Z,23.60
2022-08-25T21:12:53.373Z,23.58
2022-08-25T21:15:20.333Z,23.52
2022-08-25T21:17:53.090Z,23.48
2022-08-25T21:20:23.657Z,23.46
2022-08-25T21:22:51.194Z,23.43
2022-08-25T21:25:20.298Z,23.42
2022-08-25T21:27:47.992Z,23.28
2022-08-25T21:30:16.178Z,23.28
2022-08-25T21:32:52.909Z,23.34
2022-08-25T21:35:20.641Z,23.39
2022-08-25T21:37:53.265Z,23.37
2022-08-25T21:40:21.615Z,23.27
2022-08-25T21:42:48.777Z,23.23
2022-08-25T21:45:15.319Z,23.29
2022-08-25T21:47:42.542Z,23.35
2022-08-25T21:50:11.585Z,23.42
2022-08-25T21:52:38.286Z,23.51
2022-08-25T21:55:08.101Z,23.48
2022-08-25T21:57:42.827Z,23.47
2022-08-25T22:00:11.537Z,23.35
2022-08-25T22:02:38.583Z,23.37
2022-08-25T22:05:09.258Z,23.28
2022-08-25T22:07:41.600Z,23.27
2022-08-25T22:10:09.380Z,23.27
2022-08-25T22:12:43.460Z,23.16
2022-08-25T22:15:13.683Z,23.17
2022-08-25T22:17:40.564Z,23.10
2022-08-25T22:20:08.489Z,23.09
2022-08-25T22:22:35.540Z,23.12
2022-08-25T22:25:02.398Z,23.02
2022-08-25T22:27:31.588Z,23.05
2022-08-25T22:29:58.733Z,23.01
2022-08-25T22:32:25.485Z,23.01
2022-08-25T22:34:52.480Z,23.00
2022-08-25T22:37:18.933Z,22.93
2022-08-25T22:39:46.257Z,22.91
2022-08-25T22:42:12.777Z,22.92
2022-08-25T22:44:40.349Z,22.95
2022-08-25T22:47:07.393Z,22.86
2022-08-25T22:49:35.361Z,22.84
2022-08-25T22:52:02.021Z,22.78
2022-08-25T22:54:28.443Z,22.75
2022-08-25T22:56:54.881Z,22.64
2022-08-25T22:59:22.213Z,22.60
2022-08-25T23:01:49.553Z,22.57
2022-08-25T23:04:16.047Z,22.71
2022-08-25T23:06:45.736Z,22.70
2022-08-25T23:09:13.573Z,22.71
2022-08-25T23:11:40.617Z,22.71
2022-08-25T23:14:10.147Z,22.77
2022-08-25T23:16:41.754Z,22.78
2022-08-25T23:19:10.048Z,22.66
2022-08-25T23:21:56.895Z,22.63
2022-08-25T23:24:29.527Z,22.56
2022-08-25T23:26:58.181Z,22.61
2022-08-25T23:29:24.570Z,22.57
2022-08-25T23:31:51.756Z,22.47
2022-08-25T23:34:20.114Z,22.49
2022-08-25T23:36:46.544Z,22.49
2022-08-25T23:39:12.982Z,22.48
2022-08-25T23:41:39.973Z,22.42
2022-08-25T23:44:06.456Z,22.42
2022-08-25T23:46:35.676Z,22.51
2022-08-25T23:49:03.962Z,22.52
2022-08-25T23:51:37.129Z,22.51
2022-08-25T23:54:06.993Z,22.50
2022-08-25T23:56:37.288Z,22.50
2022-08-25T23:59:10.601Z,22.54
